Chapel Hill, NC

3:08 PM EDT on July 26, 2016 (GMT -0400)
Cosgrove Hill | | Change Station
Active Advisory: Heat Advisory

Elev 325 ft 35.95 °N, 79.02 °W | Updated 2 seconds ago

Partly Cloudy
Partly Cloudy
96.1 °F
Feels Like 119 °F
N
0.9
Wind Variable Wind from NE
Gusts 1.0 mph

Today
High -- | Low -- °F
--% Chance of Precip.
Yesterday
High -- | Low -- °F
Precip. -- in
Pressure 29.95 in
Visibility 10.0 miles
Clouds Few 3900 ft
Heat Index 119 °F
Dew Point 82 °F
Humidity 63%
Rainfall 0.00 in
Snow Depth Not available.
6:19 AM 8:25 PM
Waning Gibbous, 52% visible
METAR KIGX 261856Z AUTO VRB03KT 10SM FEW039 34/23 A2998 RMK AO2 SLP142 T03390233
Pressure 29.95 in
Visibility 10.0 miles
Clouds Few 3900 ft
Heat Index 119 °F
Dew Point 82 °F
Humidity 63%
Rainfall 0.00 in
Snow Depth Not available.
6:19 AM 8:25 PM
Waning Gibbous, 52% visible
METAR KIGX 261856Z AUTO VRB03KT 10SM FEW039 34/23 A2998 RMK AO2 SLP142 T03390233

10-Day Weather Forecast

Almanac

Astronomy

Jul. 26, 2016 Rise Set
Actual Time
Civil Twilight
Nautical Twilight
Astronomical Twilight
Moon
Length of Visible Light
Length of Day
Tomorrow will be .
, % of the Moon is Illuminated

Today's Extremes

State Highs State Lows

Community

WunderPhotos

Upload Photos

1,927,662 photos uploaded!

WunderBlog® & News

Nearby

Air Quality

  Air Quality AQ Index Pollutant
Not available.

Snow Depth

Station Depth Elevation

Earthquake Activity

City Distance Mag. Time & Date
Minimum magnitude displayed is 2.5.

Coastal Water Temperatures

Place Temperature

Stations

Nearby Weather Stations

Station Location Temp. Windchill Dew Point Humidity Wind Precip. Elev Updated Type
                   

Watches & Warnings

Heat Advisory
Issued: 3:20 AM EDT Jul. 26, 2016 – National Weather Service

... Heat advisory remains in effect from noon today to 8 PM EDT
this evening...

* temperatures... highs will be in the mid to upper 90s.

* Heat indices... 103 to 108 degrees.

* Impacts... this heat and humidity will lead to an increased risk
of heat related illnesses... especially among vulnerable
individuals such as the sick... the elderly... those exerting
themselves outdoors... and those without air conditioning.

Precautionary/preparedness actions...

A heat advisory means that hot temperatures and high humidity
will create a situation in which heat illnesses are possible.
Drink plenty of fluids... stay in an air-conditioned room... stay
out of the sun... and check up on relatives and neighbors.